createdAt,value
2018-09-20T00:00:07.717Z,7.30
2018-09-20T00:02:35.875Z,7.20
2018-09-20T00:05:04.034Z,5.90
2018-09-20T00:07:32.225Z,7.07
2018-09-20T00:10:00.483Z,7.57
2018-09-20T00:12:28.797Z,6.93
2018-09-20T00:14:57.026Z,6.87
2018-09-20T00:17:25.404Z,6.00
2018-09-20T00:19:53.612Z,6.23
2018-09-20T00:22:21.780Z,7.30
2018-09-20T00:24:49.961Z,8.70
2018-09-20T00:27:18.176Z,7.27
2018-09-20T00:29:46.356Z,8.00
2018-09-20T00:32:14.668Z,6.87
2018-09-20T00:34:42.846Z,7.60
2018-09-20T00:37:11.066Z,7.10
2018-09-20T00:39:39.267Z,7.20
2018-09-20T00:42:07.439Z,8.43
2018-09-20T00:44:35.625Z,6.60
2018-09-20T00:47:04.457Z,6.57
2018-09-20T00:49:32.622Z,7.33
2018-09-20T00:52:00.800Z,5.80
2018-09-20T00:54:29.033Z,7.33
2018-09-20T00:56:57.198Z,5.83
2018-09-20T00:59:25.420Z,6.60
2018-09-20T01:01:53.588Z,5.70
2018-09-20T01:04:21.752Z,6.33
2018-09-20T01:06:49.978Z,7.97
2018-09-20T01:09:18.173Z,7.93
2018-09-20T01:11:46.335Z,8.70
2018-09-20T01:14:14.497Z,8.40
2018-09-20T01:16:42.679Z,7.40
2018-09-20T01:19:10.873Z,9.57
2018-09-20T01:21:39.068Z,7.60
2018-09-20T01:24:07.250Z,8.03
2018-09-20T01:26:35.409Z,8.13
2018-09-20T01:29:03.597Z,7.70
2018-09-20T01:31:31.792Z,8.93
2018-09-20T01:34:00.038Z,7.00
2018-09-20T01:36:28.221Z,8.77
2018-09-20T01:38:56.429Z,7.17
2018-09-20T01:41:24.608Z,8.00
2018-09-20T01:43:52.792Z,6.73
2018-09-20T01:46:20.965Z,7.27
2018-09-20T01:48:49.142Z,7.60
2018-09-20T01:51:17.388Z,7.23
2018-09-20T01:53:45.612Z,7.50
2018-09-20T01:56:14.825Z,7.40
2018-09-20T01:58:43.945Z,7.53
2018-09-20T02:01:12.110Z,6.90
2018-09-20T02:03:40.289Z,7.90
2018-09-20T02:06:08.466Z,9.80
2018-09-20T02:08:36.624Z,7.27
2018-09-20T02:11:04.810Z,7.67
2018-09-20T02:13:32.983Z,8.40
2018-09-20T02:16:01.163Z,10.53
2018-09-20T02:18:29.344Z,9.53
2018-09-20T02:20:57.522Z,7.40
2018-09-20T02:23:25.864Z,7.93
2018-09-20T02:25:54.031Z,8.10
2018-09-20T02:28:22.258Z,6.87
2018-09-20T02:30:50.416Z,7.67
2018-09-20T02:33:18.620Z,7.93
2018-09-20T02:35:46.821Z,7.20
2018-09-20T02:38:14.985Z,8.13
2018-09-20T02:40:43.197Z,7.37
2018-09-20T02:43:11.352Z,7.93
2018-09-20T02:45:39.539Z,6.83
2018-09-20T02:48:07.724Z,7.50
2018-09-20T02:50:35.877Z,6.83
2018-09-20T02:53:04.094Z,7.13
2018-09-20T02:55:32.280Z,7.17
2018-09-20T02:58:00.420Z,7.20
2018-09-20T03:00:28.641Z,7.40
2018-09-20T03:02:56.811Z,7.93
2018-09-20T03:05:24.953Z,6.90
2018-09-20T03:07:53.154Z,6.90
2018-09-20T03:10:21.313Z,6.90
2018-09-20T03:12:49.488Z,9.47
2018-09-20T03:15:17.676Z,6.70
2018-09-20T03:17:45.838Z,7.83
2018-09-20T03:20:14.026Z,7.30
2018-09-20T03:22:42.184Z,6.37
2018-09-20T03:25:10.336Z,7.73
2018-09-20T03:27:38.661Z,6.80
2018-09-20T03:30:06.828Z,7.93
2018-09-20T03:32:35.010Z,8.00
2018-09-20T03:35:03.201Z,7.73
2018-09-20T03:37:31.433Z,6.87
2018-09-20T03:39:59.618Z,10.23
2018-09-20T03:42:27.785Z,7.20
2018-09-20T03:44:56.147Z,7.43
2018-09-20T03:47:24.305Z,10.00
2018-09-20T03:49:52.499Z,9.40
2018-09-20T03:52:20.733Z,7.03
2018-09-20T03:54:48.895Z,7.67
2018-09-20T03:57:17.085Z,7.67
2018-09-20T03:59:45.380Z,6.93
2018-09-20T04:02:13.553Z,8.67
2018-09-20T04:04:41.736Z,7.83
2018-09-20T04:07:09.916Z,9.17
2018-09-20T04:09:38.121Z,8.13
2018-09-20T04:12:06.325Z,7.40
2018-09-20T04:14:34.496Z,7.30
2018-09-20T04:17:03.053Z,7.80
2018-09-20T04:19:31.220Z,7.80
2018-09-20T04:21:59.409Z,8.10
2018-09-20T04:24:27.614Z,7.77
2018-09-20T04:26:55.817Z,8.83
2018-09-20T04:29:24.029Z,9.20
2018-09-20T04:31:52.207Z,8.10
2018-09-20T04:34:20.399Z,9.70
2018-09-20T04:36:48.609Z,8.27
2018-09-20T04:39:16.780Z,9.03
2018-09-20T04:41:44.984Z,9.77
2018-09-20T04:44:13.177Z,8.70
2018-09-20T04:46:41.338Z,9.13
2018-09-20T04:49:09.517Z,8.80
2018-09-20T04:51:37.696Z,9.20
2018-09-20T04:54:06.093Z,9.17
2018-09-20T04:56:34.248Z,9.10
2018-09-20T04:59:02.493Z,7.50
2018-09-20T05:01:30.966Z,9.00
2018-09-20T05:03:59.148Z,10.30
2018-09-20T05:06:27.507Z,10.57
2018-09-20T05:08:55.825Z,11.00
2018-09-20T05:11:24.049Z,9.00
2018-09-20T05:13:53.169Z,8.10
2018-09-20T05:16:21.334Z,9.20
2018-09-20T05:18:49.670Z,10.87
2018-09-20T05:21:17.871Z,9.20
2018-09-20T05:23:46.104Z,9.47
2018-09-20T05:26:14.702Z,9.17
2018-09-20T05:28:42.864Z,11.60
2018-09-20T05:31:11.137Z,9.60
2018-09-20T05:33:39.436Z,8.17
2018-09-20T05:36:07.569Z,9.10
2018-09-20T05:38:35.842Z,8.50
2018-09-20T05:41:04.069Z,8.30
2018-09-20T05:43:32.293Z,8.77
2018-09-20T05:46:00.405Z,8.70
2018-09-20T05:48:28.624Z,11.30
2018-09-20T05:50:56.803Z,9.60
2018-09-20T05:53:25.114Z,9.60
2018-09-20T05:55:53.290Z,9.30
2018-09-20T05:58:21.521Z,9.53
2018-09-20T06:00:49.678Z,10.13
2018-09-20T06:03:18.154Z,11.23
2018-09-20T06:05:46.478Z,9.23
2018-09-20T06:08:14.630Z,9.00
2018-09-20T06:10:43.637Z,12.07
2018-09-20T06:13:16.634Z,10.73
2018-09-20T06:15:44.897Z,8.93
2018-09-20T06:18:13.089Z,9.97
2018-09-20T06:20:41.446Z,9.70
2018-09-20T06:23:12.500Z,10.73
2018-09-20T06:25:42.157Z,9.10
2018-09-20T06:28:10.407Z,10.37
2018-09-20T06:30:38.613Z,11.10
2018-09-20T06:33:06.805Z,10.57
2018-09-20T06:35:35.085Z,10.93
2018-09-20T06:38:03.309Z,11.60
2018-09-20T06:40:31.529Z,10.13
2018-09-20T06:43:00.309Z,13.27
2018-09-20T06:45:28.473Z,12.17
2018-09-20T06:47:56.674Z,10.40
2018-09-20T06:50:24.876Z,9.43
2018-09-20T06:52:53.013Z,10.50
2018-09-20T06:55:21.163Z,30.77
2018-09-20T06:57:50.783Z,9.70
2018-09-20T07:00:22.607Z,9.50
2018-09-20T07:02:52.592Z,15.00
2018-09-20T07:05:23.185Z,10.97
2018-09-20T07:07:53.068Z,10.43
2018-09-20T07:10:24.740Z,12.97
2018-09-20T07:12:56.166Z,10.33
2018-09-20T07:15:27.462Z,10.00
2018-09-20T07:17:55.688Z,9.83
2018-09-20T07:20:23.873Z,12.30
2018-09-20T07:22:52.120Z,11.63
2018-09-20T07:25:20.362Z,9.90
2018-09-20T07:27:48.506Z,11.33
2018-09-20T07:30:16.872Z,11.00
2018-09-20T07:32:45.563Z,8.73
2018-09-20T07:35:13.925Z,8.73
2018-09-20T07:37:43.359Z,10.13
2018-09-20T07:40:11.722Z,6.33
2018-09-20T07:42:40.152Z,6.07
2018-09-20T07:45:08.510Z,5.90
2018-09-20T07:47:37.302Z,6.03
2018-09-20T07:50:06.380Z,6.70
2018-09-20T07:52:34.667Z,7.63
2018-09-20T07:55:02.855Z,6.47
2018-09-20T07:57:31.359Z,11.97
2018-09-20T08:00:01.232Z,7.10
2018-09-20T08:02:29.677Z,7.37
2018-09-20T08:04:58.100Z,7.77
2018-09-20T08:07:26.631Z,7.73
2018-09-20T08:09:54.872Z,7.93
2018-09-20T08:12:23.432Z,6.63
2018-09-20T08:14:51.691Z,7.47
2018-09-20T08:17:20.128Z,6.23
2018-09-20T08:19:50.197Z,5.13
2018-09-20T08:22:18.520Z,4.90
2018-09-20T08:24:46.753Z,5.30
2018-09-20T08:27:15.657Z,5.80
2018-09-20T08:29:43.929Z,6.03
2018-09-20T08:32:12.188Z,5.23
2018-09-20T08:34:40.813Z,5.43
2018-09-20T08:37:09.191Z,5.03
2018-09-20T08:39:37.385Z,4.90
2018-09-20T08:42:05.599Z,6.67
2018-09-20T08:44:33.946Z,5.60
2018-09-20T08:47:03.753Z,5.83
2018-09-20T08:49:32.274Z,6.00
2018-09-20T08:52:01.148Z,4.23
2018-09-20T08:54:29.914Z,6.83
2018-09-20T08:56:58.238Z,4.43
2018-09-20T08:59:26.742Z,5.07
2018-09-20T09:01:54.924Z,4.30
2018-09-20T09:04:23.224Z,5.30
2018-09-20T09:06:52.091Z,4.53
2018-09-20T09:09:20.277Z,7.23
2018-09-20T09:11:48.489Z,5.50
2018-09-20T09:14:16.725Z,5.50
2018-09-20T09:16:44.883Z,4.03
2018-09-20T09:19:13.069Z,5.13
2018-09-20T09:21:42.368Z,5.00
2018-09-20T09:24:10.561Z,4.20
2018-09-20T09:26:38.904Z,4.87
2018-09-20T09:29:07.093Z,5.33
2018-09-20T09:31:35.641Z,4.83
2018-09-20T09:34:03.835Z,4.50
2018-09-20T09:36:31.934Z,4.10
2018-09-20T09:39:04.022Z,4.57
2018-09-20T09:41:32.213Z,4.40
2018-09-20T09:44:00.517Z,5.60
2018-09-20T09:46:28.776Z,4.63
2018-09-20T09:48:56.977Z,4.67
2018-09-20T09:51:25.277Z,4.10
2018-09-20T09:53:54.546Z,4.13
2018-09-20T09:56:22.786Z,3.50
2018-09-20T09:58:50.964Z,4.87
2018-09-20T10:01:19.268Z,6.77
2018-09-20T10:03:47.418Z,4.53
2018-09-20T10:06:15.659Z,4.57
2018-09-20T10:08:44.064Z,7.47
2018-09-20T10:11:12.257Z,5.07
2018-09-20T10:13:40.713Z,5.37
2018-09-20T10:16:08.849Z,4.50
2018-09-20T10:18:37.100Z,4.80
2018-09-20T10:21:05.505Z,5.20
2018-09-20T10:23:33.845Z,6.27
2018-09-20T10:26:02.013Z,4.93
2018-09-20T10:28:30.257Z,4.33
2018-09-20T10:30:58.522Z,4.13
2018-09-20T10:33:26.696Z,3.53
2018-09-20T10:35:54.906Z,3.30
2018-09-20T10:38:24.989Z,3.80
2018-09-20T10:40:53.912Z,3.57
2018-09-20T10:43:22.048Z,4.07
2018-09-20T10:45:50.219Z,3.47
2018-09-20T10:48:18.410Z,3.00
2018-09-20T10:50:46.559Z,4.03
2018-09-20T10:53:14.732Z,4.00
2018-09-20T10:55:42.913Z,3.30
2018-09-20T10:58:11.069Z,3.77
2018-09-20T11:00:39.294Z,3.30
2018-09-20T11:03:07.539Z,2.93
2018-09-20T11:05:35.667Z,4.07
2018-09-20T11:08:03.929Z,4.17
2018-09-20T11:10:32.433Z,2.67
2018-09-20T11:13:00.789Z,3.43
2018-09-20T11:15:28.972Z,3.27
2018-09-20T11:17:57.159Z,3.53
2018-09-20T11:20:25.318Z,3.23
2018-09-20T11:22:53.510Z,3.83
2018-09-20T11:25:21.713Z,3.20
2018-09-20T11:27:49.859Z,4.03
2018-09-20T11:30:18.047Z,5.00
2018-09-20T11:32:46.313Z,4.90
2018-09-20T11:35:14.613Z,3.70
2018-09-20T11:37:42.772Z,4.63
2018-09-20T11:40:10.938Z,3.67
2018-09-20T11:42:39.132Z,3.60
2018-09-20T11:45:07.312Z,4.10
2018-09-20T11:47:35.455Z,5.10
2018-09-20T11:50:03.806Z,3.80
2018-09-20T11:52:31.956Z,3.63
2018-09-20T11:55:00.177Z,4.67
2018-09-20T11:57:28.341Z,4.30
2018-09-20T11:59:56.523Z,4.63
2018-09-20T12:02:24.801Z,3.57
2018-09-20T12:04:53.084Z,4.23
2018-09-20T12:07:21.238Z,3.40
2018-09-20T12:09:49.421Z,4.23
2018-09-20T12:12:18.134Z,3.07
2018-09-20T12:14:46.353Z,3.10
2018-09-20T12:17:14.609Z,4.57
2018-09-20T12:19:42.790Z,2.60
2018-09-20T12:22:10.949Z,3.27
2018-09-20T12:24:39.171Z,2.93
2018-09-20T12:27:07.342Z,2.67
2018-09-20T12:29:35.524Z,2.43
2018-09-20T12:32:03.701Z,2.93
2018-09-20T12:34:31.986Z,2.60
2018-09-20T12:37:00.129Z,3.93
2018-09-20T12:39:28.333Z,3.03
2018-09-20T12:41:56.516Z,4.33
2018-09-20T12:44:24.653Z,3.70
2018-09-20T12:46:52.798Z,3.90
2018-09-20T12:49:20.977Z,2.80
2018-09-20T12:51:49.203Z,4.00
2018-09-20T12:54:17.544Z,2.87
2018-09-20T12:56:45.752Z,3.17
2018-09-20T12:59:13.921Z,2.97
2018-09-20T13:01:42.076Z,3.70
2018-09-20T13:04:10.220Z,3.70
2018-09-20T13:06:38.511Z,4.13
2018-09-20T13:09:08.724Z,8.20
2018-09-20T13:11:36.932Z,4.43
2018-09-20T13:14:05.124Z,3.00
2018-09-20T13:16:33.303Z,5.37
2018-09-20T13:19:01.444Z,3.40
2018-09-20T13:21:29.701Z,2.60
2018-09-20T13:23:57.871Z,3.30
2018-09-20T13:26:26.023Z,2.83
2018-09-20T13:28:54.362Z,3.07
2018-09-20T13:34:03.311Z,2.43
2018-09-20T13:36:31.601Z,3.20
2018-09-20T13:38:59.781Z,2.90
2018-09-20T13:41:27.948Z,3.20
2018-09-20T13:43:56.164Z,2.17
2018-09-20T13:46:24.546Z,2.03
2018-09-20T13:48:52.793Z,2.57
2018-09-20T13:51:21.012Z,2.30
2018-09-20T13:53:49.181Z,2.40
2018-09-20T13:56:17.409Z,2.00
2018-09-20T13:58:47.799Z,2.10
2018-09-20T14:01:16.456Z,2.60
2018-09-20T14:03:44.711Z,2.73
2018-09-20T14:06:12.970Z,2.63
2018-09-20T14:08:41.207Z,2.57
2018-09-20T14:11:09.534Z,2.23
2018-09-20T14:13:37.857Z,2.70
2018-09-20T14:16:06.096Z,4.80
2018-09-20T14:18:34.378Z,5.33
2018-09-20T14:21:02.573Z,3.23
2018-09-20T14:23:30.791Z,2.00
2018-09-20T14:25:59.216Z,2.80
2018-09-20T14:28:27.421Z,2.17
2018-09-20T14:30:55.639Z,6.60
2018-09-20T14:33:24.004Z,2.60
2018-09-20T14:35:52.573Z,2.03
2018-09-20T14:38:20.879Z,3.17
2018-09-20T14:40:49.119Z,2.60
2018-09-20T14:43:17.330Z,2.50
2018-09-20T14:45:45.624Z,2.53
2018-09-20T14:48:13.878Z,3.40
2018-09-20T14:50:42.143Z,3.23
2018-09-20T14:53:10.390Z,2.40
2018-09-20T14:55:38.657Z,3.33
2018-09-20T14:58:06.954Z,2.50
2018-09-20T15:00:35.274Z,2.50
2018-09-20T15:03:03.790Z,3.20
2018-09-20T15:05:32.036Z,2.30
2018-09-20T15:08:00.286Z,2.40
2018-09-20T15:10:28.517Z,2.67
2018-09-20T15:12:56.746Z,3.73
2018-09-20T15:15:25.004Z,2.97
2018-09-20T15:17:53.204Z,3.77
2018-09-20T15:20:21.413Z,3.00
2018-09-20T15:22:49.620Z,2.33
2018-09-20T15:25:17.911Z,2.70
2018-09-20T15:27:46.092Z,2.53
2018-09-20T15:30:14.419Z,2.93
2018-09-20T15:32:44.126Z,3.67
2018-09-20T15:35:12.411Z,2.57
2018-09-20T15:37:40.650Z,2.87
2018-09-20T15:40:08.981Z,2.87
2018-09-20T15:42:37.357Z,2.77
2018-09-20T15:45:05.665Z,2.77
2018-09-20T15:47:34.099Z,4.10
2018-09-20T15:50:02.293Z,3.73
2018-09-20T15:52:30.473Z,3.00
2018-09-20T15:54:58.644Z,4.33
2018-09-20T15:57:29.624Z,3.40
2018-09-20T15:59:57.881Z,3.00
2018-09-20T16:02:26.137Z,5.50
2018-09-20T16:04:54.337Z,3.50
2018-09-20T16:07:23.451Z,2.70
2018-09-20T16:09:51.686Z,3.13
2018-09-20T16:12:19.931Z,2.80
2018-09-20T16:14:48.590Z,5.33
2018-09-20T16:17:16.852Z,3.00
2018-09-20T16:19:45.233Z,3.90
2018-09-20T16:22:13.498Z,3.30
2018-09-20T16:24:41.777Z,2.40
2018-09-20T16:27:10.033Z,3.20
2018-09-20T16:30:14.656Z,3.30
2018-09-20T16:32:59.148Z,2.90
2018-09-20T16:36:07.047Z,2.50
2018-09-20T16:38:42.112Z,3.30
2018-09-20T16:41:12.969Z,3.40
2018-09-20T16:43:41.553Z,3.60
2018-09-20T16:46:09.811Z,3.27
2018-09-20T16:48:38.047Z,3.67
2018-09-20T16:51:06.211Z,2.90
2018-09-20T16:53:34.558Z,3.40
2018-09-20T16:56:03.268Z,3.33
2018-09-20T16:58:31.458Z,3.00
2018-09-20T17:01:01.404Z,2.93
2018-09-20T17:03:30.011Z,3.20
2018-09-20T17:06:00.390Z,4.10
2018-09-20T17:08:31.504Z,3.47
2018-09-20T17:10:59.777Z,3.80
2018-09-20T17:13:27.994Z,4.97
2018-09-20T17:16:00.077Z,4.20
2018-09-20T17:18:28.303Z,3.40
2018-09-20T17:20:56.477Z,3.60
2018-09-20T17:23:25.443Z,4.50
2018-09-20T17:28:31.805Z,3.83
2018-09-20T17:31:21.646Z,3.40
2018-09-20T17:37:29.550Z,4.20
2018-09-20T17:39:59.491Z,4.53
2018-09-20T17:42:28.633Z,3.57
2018-09-20T17:44:58.746Z,3.77
2018-09-20T17:47:29.563Z,3.90
2018-09-20T17:50:01.385Z,3.40
2018-09-20T17:52:34.214Z,3.00
2018-09-20T17:55:03.864Z,3.80
2018-09-20T17:57:36.209Z,3.93
2018-09-20T18:00:07.938Z,3.90
2018-09-20T18:02:40.699Z,4.43
2018-09-20T18:05:11.537Z,2.83
2018-09-20T18:07:39.956Z,4.50
2018-09-20T18:10:08.501Z,4.60
2018-09-20T18:12:39.377Z,3.73
2018-09-20T18:15:07.932Z,6.03
2018-09-20T18:17:46.521Z,5.87
2018-09-20T18:20:20.288Z,4.90
2018-09-20T18:22:50.660Z,3.60
2018-09-20T18:25:24.310Z,4.30
2018-09-20T18:27:56.013Z,4.27
2018-09-20T18:30:30.039Z,4.57
2018-09-20T18:33:03.965Z,4.50
2018-09-20T18:35:38.443Z,4.30
2018-09-20T18:38:13.247Z,5.90
2018-09-20T18:40:47.430Z,10.50
2018-09-20T18:43:30.827Z,5.40
2018-09-20T18:46:02.880Z,4.03
2018-09-20T18:51:23.910Z,5.20
2018-09-20T18:53:52.465Z,4.60
2018-09-20T18:56:20.991Z,4.20
2018-09-20T18:58:49.272Z,6.20
2018-09-20T19:01:17.588Z,4.90
2018-09-20T19:03:46.447Z,4.20
2018-09-20T19:06:15.270Z,5.10
2018-09-20T19:08:43.593Z,5.43
2018-09-20T19:13:55.957Z,3.57
2018-09-20T19:16:25.783Z,4.03
2018-09-20T19:18:54.377Z,4.00
2018-09-20T19:21:22.656Z,4.13
2018-09-20T19:23:50.852Z,3.40
2018-09-20T19:26:19.006Z,3.23
2018-09-20T19:28:47.955Z,3.20
2018-09-20T19:31:16.136Z,3.90
2018-09-20T19:33:45.701Z,4.00
2018-09-20T19:36:15.380Z,4.90
2018-09-20T19:38:43.688Z,4.50
2018-09-20T19:41:12.120Z,4.47
2018-09-20T19:43:40.303Z,3.80
2018-09-20T19:46:08.652Z,4.60
2018-09-20T19:48:37.013Z,4.70
2018-09-20T19:51:05.352Z,4.30
2018-09-20T19:53:33.693Z,4.33
2018-09-20T19:56:02.124Z,4.00
2018-09-20T19:58:30.765Z,4.90
2018-09-20T20:00:58.895Z,5.23
2018-09-20T20:03:27.889Z,3.73
2018-09-20T20:05:57.699Z,4.60
2018-09-20T20:08:25.849Z,4.73
2018-09-20T20:11:00.517Z,4.40
2018-09-20T20:13:28.787Z,4.73
2018-09-20T20:15:57.863Z,4.43
2018-09-20T20:18:27.815Z,5.10
2018-09-20T20:20:57.472Z,6.30
2018-09-20T20:23:26.968Z,4.13
2018-09-20T20:25:55.360Z,3.63
2018-09-20T20:28:23.699Z,5.67
2018-09-20T20:30:51.853Z,3.67
2018-09-20T20:33:20.005Z,3.57
2018-09-20T20:35:48.196Z,3.90
2018-09-20T20:38:16.466Z,4.90
2018-09-20T20:40:49.198Z,5.20
2018-09-20T20:43:33.489Z,4.30
2018-09-20T20:46:01.696Z,4.10
2018-09-20T20:48:36.734Z,4.23
2018-09-20T20:51:05.019Z,3.97
2018-09-20T20:53:33.184Z,4.97
2018-09-20T20:56:04.195Z,4.53
2018-09-20T20:58:49.540Z,4.43
2018-09-20T21:01:18.772Z,4.40
2018-09-20T21:03:47.594Z,4.90
2018-09-20T21:06:16.245Z,3.80
2018-09-20T21:08:53.368Z,4.53
2018-09-20T21:11:22.572Z,3.97
2018-09-20T21:13:51.725Z,4.33
2018-09-20T21:16:20.687Z,5.40
2018-09-20T21:18:49.157Z,4.43
2018-09-20T21:21:17.356Z,4.27
2018-09-20T21:23:45.701Z,5.57
2018-09-20T21:26:14.417Z,3.90
2018-09-20T21:28:44.808Z,4.67
2018-09-20T21:31:27.112Z,3.80
2018-09-20T21:33:58.236Z,4.17
2018-09-20T21:36:26.815Z,5.33
2018-09-20T21:38:55.369Z,4.00
2018-09-20T21:41:23.977Z,4.60
2018-09-20T21:43:52.882Z,4.97
2018-09-20T21:46:21.985Z,5.10
2018-09-20T21:48:50.424Z,4.40
2018-09-20T21:51:18.966Z,4.47
2018-09-20T21:53:47.369Z,4.30
2018-09-20T21:56:15.617Z,3.70
2018-09-20T21:58:43.936Z,4.20
2018-09-20T22:01:14.246Z,4.20
2018-09-20T22:03:42.994Z,5.03
2018-09-20T22:06:42.845Z,5.27
2018-09-20T22:09:12.771Z,4.00
2018-09-20T22:11:41.953Z,4.17
2018-09-20T22:14:10.557Z,4.20
2018-09-20T22:16:39.966Z,4.23
2018-09-20T22:19:08.714Z,4.37
2018-09-20T22:21:37.453Z,4.70
2018-09-20T22:24:05.580Z,4.20
2018-09-20T22:26:33.763Z,5.17
2018-09-20T22:29:01.940Z,3.93
2018-09-20T22:31:30.140Z,5.60
2018-09-20T22:33:58.305Z,4.27
2018-09-20T22:36:26.916Z,4.60
2018-09-20T22:38:55.563Z,4.80
2018-09-20T22:41:23.873Z,4.10
2018-09-20T22:43:52.064Z,3.83
2018-09-20T22:46:20.895Z,4.23
2018-09-20T22:48:49.701Z,4.67
2018-09-20T22:51:18.516Z,4.07
2018-09-20T22:53:47.195Z,5.53
2018-09-20T22:56:15.324Z,4.43
2018-09-20T22:58:43.502Z,4.70
2018-09-20T23:01:16.019Z,5.27
2018-09-20T23:03:44.856Z,4.07
2018-09-20T23:06:13.568Z,4.77
2018-09-20T23:08:42.139Z,4.17
2018-09-20T23:11:10.949Z,6.50
2018-09-20T23:13:39.710Z,4.00
2018-09-20T23:16:07.908Z,4.27
2018-09-20T23:18:36.714Z,4.00
2018-09-20T23:21:05.257Z,5.00
2018-09-20T23:23:34.024Z,5.47
2018-09-20T23:26:02.821Z,5.30
2018-09-20T23:28:31.704Z,4.30
2018-09-20T23:31:00.699Z,4.10
2018-09-20T23:33:29.725Z,3.73
2018-09-20T23:35:58.703Z,4.67
2018-09-20T23:38:27.351Z,5.00
2018-09-20T23:40:56.196Z,3.47
2018-09-20T23:43:25.056Z,5.47
2018-09-20T23:45:53.544Z,5.70
2018-09-20T23:48:22.236Z,4.13
2018-09-20T23:50:50.413Z,3.77
2018-09-20T23:53:18.553Z,4.70
2018-09-20T23:55:46.721Z,4.80
2018-09-20T23:58:15.640Z,4.37
